createdAt,value
2019-02-25T00:01:09.061Z,11.43
2019-02-25T00:03:38.474Z,12.17
2019-02-25T00:06:07.804Z,12.90
2019-02-25T00:08:37.111Z,12.00
2019-02-25T00:11:06.489Z,12.43
2019-02-25T00:13:35.844Z,12.40
2019-02-25T00:16:05.294Z,13.07
2019-02-25T00:18:34.670Z,11.33
2019-02-25T00:21:04.057Z,12.00
2019-02-25T00:23:33.389Z,12.10
2019-02-25T00:26:02.795Z,10.57
2019-02-25T00:28:32.120Z,11.90
2019-02-25T00:31:01.349Z,12.23
2019-02-25T00:33:30.735Z,11.17
2019-02-25T00:36:00.045Z,13.63
2019-02-25T00:38:29.408Z,11.20
2019-02-25T00:40:58.774Z,12.37
2019-02-25T00:43:28.050Z,10.93
2019-02-25T00:45:57.343Z,10.57
2019-02-25T00:48:26.716Z,11.37
2019-02-25T00:50:56.048Z,11.27
2019-02-25T00:53:25.398Z,11.83
2019-02-25T00:55:54.689Z,11.20
2019-02-25T00:58:24.015Z,12.47
2019-02-25T01:00:53.389Z,11.83
2019-02-25T01:03:22.688Z,11.20
2019-02-25T01:05:52.017Z,11.63
2019-02-25T01:08:21.295Z,12.37
2019-02-25T01:10:50.634Z,11.97
2019-02-25T01:13:20.004Z,13.53
2019-02-25T01:15:49.390Z,11.97
2019-02-25T01:18:18.737Z,13.50
2019-02-25T01:20:48.112Z,13.27
2019-02-25T01:23:17.521Z,11.20
2019-02-25T01:25:46.814Z,12.63
2019-02-25T01:28:16.113Z,12.13
2019-02-25T01:30:45.420Z,11.50
2019-02-25T01:33:15.056Z,11.77
2019-02-25T01:35:44.412Z,12.83
2019-02-25T01:38:15.601Z,12.77
2019-02-25T01:40:44.670Z,12.60
2019-02-25T01:43:14.046Z,14.27
2019-02-25T01:45:43.464Z,14.13
2019-02-25T01:48:12.710Z,15.20
2019-02-25T01:50:42.058Z,14.70
2019-02-25T01:53:11.322Z,16.87
2019-02-25T01:55:40.643Z,15.67
2019-02-25T01:58:10.045Z,17.17
2019-02-25T02:00:39.467Z,15.30
2019-02-25T02:03:08.851Z,14.30
2019-02-25T02:05:38.172Z,14.33
2019-02-25T02:08:07.557Z,15.70
2019-02-25T02:10:36.862Z,15.10
2019-02-25T02:13:13.920Z,14.13
2019-02-25T02:15:37.211Z,15.07
2019-02-25T02:18:06.540Z,15.10
2019-02-25T02:20:35.880Z,12.93
2019-02-25T02:23:05.167Z,15.23
2019-02-25T02:25:34.557Z,15.07
2019-02-25T02:28:04.080Z,14.30
2019-02-25T02:30:33.447Z,15.00
2019-02-25T02:33:02.775Z,13.23
2019-02-25T02:35:32.233Z,13.73
2019-02-25T02:38:01.618Z,14.40
2019-02-25T02:40:30.911Z,17.80
2019-02-25T02:43:00.259Z,16.20
2019-02-25T02:45:41.795Z,12.83
2019-02-25T02:48:24.481Z,15.33
2019-02-25T02:50:53.913Z,13.67
2019-02-25T02:53:23.277Z,13.93
2019-02-25T02:55:52.608Z,17.17
2019-02-25T02:58:22.213Z,15.87
2019-02-25T03:00:51.568Z,16.80
2019-02-25T03:03:20.929Z,14.47
2019-02-25T03:05:50.243Z,16.30
2019-02-25T03:08:19.598Z,15.53
2019-02-25T03:10:48.891Z,15.67
2019-02-25T03:13:18.401Z,15.50
2019-02-25T03:15:47.794Z,14.70
2019-02-25T03:18:17.181Z,17.00
2019-02-25T03:20:46.469Z,15.97
2019-02-25T03:23:15.850Z,14.27
2019-02-25T03:25:45.252Z,14.20
2019-02-25T03:28:14.716Z,13.20
2019-02-25T03:30:44.124Z,14.37
2019-02-25T03:33:13.378Z,12.93
2019-02-25T03:35:42.750Z,15.87
2019-02-25T03:38:12.036Z,16.63
2019-02-25T03:40:41.387Z,14.77
2019-02-25T03:43:10.758Z,14.00
2019-02-25T03:45:40.058Z,12.63
2019-02-25T03:48:09.422Z,13.73
2019-02-25T03:50:38.793Z,13.47
2019-02-25T03:53:08.166Z,14.17
2019-02-25T03:55:37.530Z,14.93
2019-02-25T03:58:06.904Z,14.47
2019-02-25T04:00:36.329Z,13.90
2019-02-25T04:03:05.687Z,12.47
2019-02-25T04:05:35.028Z,13.30
2019-02-25T04:08:04.410Z,12.30
2019-02-25T04:10:33.805Z,15.53
2019-02-25T04:13:03.095Z,13.20
2019-02-25T04:15:38.775Z,14.00
2019-02-25T04:18:08.103Z,14.40
2019-02-25T04:20:37.457Z,13.53
2019-02-25T04:23:06.837Z,10.63
2019-02-25T04:25:36.190Z,11.77
2019-02-25T04:28:05.469Z,12.13
2019-02-25T04:30:34.862Z,11.13
2019-02-25T04:33:04.228Z,10.90
2019-02-25T04:35:33.549Z,9.23
2019-02-25T04:38:03.154Z,9.07
2019-02-25T04:40:32.545Z,9.93
2019-02-25T04:43:01.908Z,8.83
2019-02-25T04:45:31.279Z,10.20
2019-02-25T04:48:00.687Z,10.10
2019-02-25T04:50:30.025Z,10.23
2019-02-25T04:52:59.394Z,10.67
2019-02-25T04:55:28.751Z,11.33
2019-02-25T04:57:57.947Z,9.63
2019-02-25T05:00:27.317Z,12.40
2019-02-25T05:02:56.694Z,13.13
2019-02-25T05:05:26.031Z,10.83
2019-02-25T05:07:55.383Z,10.43
2019-02-25T05:10:25.182Z,13.67
2019-02-25T05:12:59.545Z,11.47
2019-02-25T05:15:29.465Z,13.43
2019-02-25T05:17:58.838Z,10.47
2019-02-25T05:20:28.211Z,13.67
2019-02-25T05:22:57.604Z,10.80
2019-02-25T05:25:27.434Z,12.13
2019-02-25T05:27:56.726Z,12.37
2019-02-25T05:30:26.131Z,10.17
2019-02-25T05:32:55.490Z,13.33
2019-02-25T05:35:24.871Z,11.00
2019-02-25T05:37:54.300Z,10.27
2019-02-25T05:40:42.751Z,11.00
2019-02-25T05:43:12.562Z,10.07
2019-02-25T05:45:41.949Z,13.53
2019-02-25T05:48:11.325Z,12.73
2019-02-25T05:50:40.677Z,11.40
2019-02-25T05:53:10.037Z,11.97
2019-02-25T05:55:39.413Z,11.67
2019-02-25T05:58:08.861Z,13.13
2019-02-25T06:00:38.190Z,9.70
2019-02-25T06:03:14.996Z,13.50
2019-02-25T06:05:44.361Z,11.53
2019-02-25T06:08:13.716Z,10.37
2019-02-25T06:10:43.155Z,10.37
2019-02-25T06:13:13.415Z,12.20
2019-02-25T06:15:42.785Z,10.97
2019-02-25T06:18:12.132Z,10.63
2019-02-25T06:20:41.494Z,9.43
2019-02-25T06:23:10.941Z,9.57
2019-02-25T06:25:40.339Z,12.10
2019-02-25T06:28:09.786Z,9.90
2019-02-25T06:30:39.177Z,9.53
2019-02-25T06:33:08.547Z,9.97
2019-02-25T06:35:39.423Z,9.37
2019-02-25T06:38:08.742Z,9.10
2019-02-25T06:40:38.136Z,9.67
2019-02-25T06:43:07.607Z,9.87
2019-02-25T06:45:36.989Z,9.87
2019-02-25T06:48:06.346Z,10.90
2019-02-25T06:50:35.726Z,9.33
2019-02-25T06:53:04.980Z,9.73
2019-02-25T06:55:34.342Z,10.27
2019-02-25T06:58:03.660Z,12.30
2019-02-25T07:00:33.046Z,8.77
2019-02-25T07:03:02.428Z,10.03
2019-02-25T07:05:48.354Z,10.30
2019-02-25T07:08:39.661Z,10.87
2019-02-25T07:11:23.929Z,8.70
2019-02-25T07:14:08.145Z,9.13
2019-02-25T07:16:47.646Z,11.10
2019-02-25T07:19:34.955Z,11.63
2019-02-25T07:22:23.335Z,10.53
2019-02-25T07:25:11.655Z,10.80
2019-02-25T07:28:05.811Z,10.77
2019-02-25T07:31:09.280Z,13.53
2019-02-25T07:33:57.686Z,12.43
2019-02-25T07:36:45.043Z,10.10
2019-02-25T07:39:32.058Z,11.57
2019-02-25T07:42:19.491Z,11.90
2019-02-25T07:45:13.796Z,12.10
2019-02-25T07:47:51.436Z,12.43
2019-02-25T07:50:33.529Z,11.90
2019-02-25T07:53:36.962Z,11.13
2019-02-25T07:56:40.653Z,10.50
2019-02-25T07:59:28.907Z,10.63
2019-02-25T08:02:16.199Z,9.37
2019-02-25T08:05:06.045Z,13.73
2019-02-25T08:07:52.959Z,10.23
2019-02-25T08:10:40.234Z,10.00
2019-02-25T08:13:33.963Z,13.53
2019-02-25T08:16:13.643Z,12.73
2019-02-25T08:19:00.825Z,16.63
2019-02-25T08:21:40.747Z,17.33
2019-02-25T08:24:16.483Z,18.20
2019-02-25T08:27:07.637Z,15.77
2019-02-25T08:29:42.625Z,13.10
2019-02-25T08:32:30.079Z,13.77
2019-02-25T08:35:16.870Z,12.13
2019-02-25T08:38:14.974Z,9.70
2019-02-25T08:41:01.232Z,9.83
2019-02-25T08:43:34.998Z,12.07
2019-02-25T08:46:26.373Z,11.10
2019-02-25T08:49:09.253Z,12.43
2019-02-25T08:51:38.561Z,15.40
2019-02-25T08:54:07.933Z,9.77
2019-02-25T08:56:37.235Z,12.57
2019-02-25T08:59:06.531Z,11.53
2019-02-25T09:01:35.898Z,9.87
2019-02-25T09:04:05.214Z,11.10
2019-02-25T09:06:34.580Z,10.53
2019-02-25T09:09:05.244Z,11.80
2019-02-25T09:11:34.554Z,10.90
2019-02-25T09:14:03.950Z,12.00
2019-02-25T09:16:33.329Z,13.07
2019-02-25T09:19:02.674Z,12.50
2019-02-25T09:21:32.272Z,10.40
2019-02-25T09:24:01.709Z,13.43
2019-02-25T09:26:30.918Z,11.10
2019-02-25T09:29:00.295Z,11.60
2019-02-25T09:31:29.699Z,13.17
2019-02-25T09:33:58.983Z,12.83
2019-02-25T09:36:28.349Z,13.80
2019-02-25T09:38:57.659Z,14.33
2019-02-25T09:41:29.904Z,13.40
2019-02-25T09:43:58.045Z,12.47
2019-02-25T09:46:27.629Z,12.47
2019-02-25T09:48:56.907Z,12.53
2019-02-25T09:51:26.197Z,12.63
2019-02-25T09:53:55.491Z,11.80
2019-02-25T09:56:24.864Z,11.60
2019-02-25T09:58:54.168Z,11.47
2019-02-25T10:01:23.530Z,10.93
2019-02-25T10:03:52.934Z,12.87
2019-02-25T10:06:22.272Z,9.93
2019-02-25T10:08:51.596Z,11.07
2019-02-25T10:11:20.832Z,11.07
2019-02-25T10:13:51.800Z,9.13
2019-02-25T10:16:21.384Z,9.53
2019-02-25T10:18:50.765Z,9.77
2019-02-25T10:21:20.165Z,10.87
2019-02-25T10:23:49.559Z,10.50
2019-02-25T10:26:18.959Z,9.60
2019-02-25T10:28:48.346Z,8.73
2019-02-25T10:31:17.740Z,9.37
2019-02-25T10:33:47.195Z,9.20
2019-02-25T10:36:16.452Z,9.90
2019-02-25T10:38:45.924Z,10.03
2019-02-25T10:41:17.169Z,9.83
2019-02-25T10:43:46.336Z,10.50
2019-02-25T10:46:17.574Z,10.87
2019-02-25T10:48:47.441Z,13.13
2019-02-25T10:51:17.746Z,10.17
2019-02-25T10:53:47.888Z,9.93
2019-02-25T10:59:08.914Z,9.43
2019-02-25T11:01:39.336Z,9.90
2019-02-25T11:04:09.296Z,10.10
2019-02-25T11:06:38.693Z,8.67
2019-02-25T11:09:31.809Z,9.57
2019-02-25T11:12:01.203Z,9.60
2019-02-25T11:14:33.339Z,7.67
2019-02-25T11:17:02.401Z,8.33
2019-02-25T11:19:32.945Z,8.80
2019-02-25T11:22:02.434Z,8.80
2019-02-25T11:24:31.778Z,8.70
2019-02-25T11:27:02.659Z,9.53
2019-02-25T11:29:32.030Z,8.30
2019-02-25T11:32:01.405Z,8.43
2019-02-25T11:34:31.627Z,9.73
2019-02-25T11:37:01.667Z,8.53
2019-02-25T11:39:32.607Z,11.37
2019-02-25T11:42:03.397Z,8.03
2019-02-25T11:44:33.052Z,9.07
2019-02-25T11:47:02.406Z,9.17
2019-02-25T11:49:31.755Z,7.60
2019-02-25T11:52:01.145Z,6.87
2019-02-25T11:54:30.509Z,6.70
2019-02-25T11:57:00.062Z,8.53
2019-02-25T11:59:30.760Z,8.17
2019-02-25T12:02:00.170Z,6.83
2019-02-25T12:04:29.564Z,7.73
2019-02-25T12:06:58.870Z,8.10
2019-02-25T12:09:28.218Z,8.07
2019-02-25T12:11:57.507Z,11.27
2019-02-25T12:14:26.908Z,7.53
2019-02-25T12:16:56.226Z,9.43
2019-02-25T12:19:25.650Z,11.13
2019-02-25T12:21:55.039Z,12.10
2019-02-25T12:24:24.436Z,9.93
2019-02-25T12:26:53.805Z,7.10
2019-02-25T12:29:26.162Z,8.17
2019-02-25T12:31:55.525Z,8.20
2019-02-25T12:34:24.899Z,6.77
2019-02-25T12:36:54.295Z,8.13
2019-02-25T12:39:23.806Z,6.40
2019-02-25T12:41:53.170Z,8.07
2019-02-25T12:44:22.569Z,10.73
2019-02-25T12:46:51.921Z,8.63
2019-02-25T12:49:21.302Z,5.87
2019-02-25T12:51:50.666Z,6.00
2019-02-25T12:54:20.077Z,5.67
2019-02-25T12:56:49.439Z,6.47
2019-02-25T12:59:18.848Z,6.77
2019-02-25T13:01:48.232Z,6.33
2019-02-25T13:04:17.540Z,8.07
2019-02-25T13:06:46.945Z,5.47
2019-02-25T13:09:16.233Z,8.97
2019-02-25T13:11:45.594Z,7.40
2019-02-25T13:14:14.903Z,5.57
2019-02-25T13:16:44.285Z,7.00
2019-02-25T13:19:13.643Z,5.43
2019-02-25T13:21:42.998Z,6.30
2019-02-25T13:24:12.356Z,6.00
2019-02-25T13:26:41.833Z,5.73
2019-02-25T13:29:11.133Z,8.23
2019-02-25T13:31:40.501Z,6.83
2019-02-25T13:34:09.817Z,6.37
2019-02-25T13:36:39.144Z,5.97
2019-02-25T13:39:08.770Z,8.43
2019-02-25T13:41:38.269Z,9.43
2019-02-25T13:44:07.566Z,7.20
2019-02-25T13:46:36.917Z,7.07
2019-02-25T13:49:06.333Z,8.47
2019-02-25T13:51:35.688Z,6.83
2019-02-25T13:54:05.042Z,6.43
2019-02-25T13:56:34.424Z,5.20
2019-02-25T13:59:03.803Z,8.97
2019-02-25T14:01:33.353Z,7.00
2019-02-25T14:04:02.701Z,5.63
2019-02-25T14:06:32.053Z,6.90
2019-02-25T14:09:01.447Z,6.80
2019-02-25T14:11:30.793Z,6.77
2019-02-25T14:14:00.162Z,5.53
2019-02-25T14:16:29.804Z,7.57
2019-02-25T14:18:59.106Z,5.93
2019-02-25T14:21:28.514Z,5.40
2019-02-25T14:23:59.806Z,8.13
2019-02-25T14:26:28.904Z,6.53
2019-02-25T14:28:58.294Z,6.03
2019-02-25T14:31:29.940Z,7.17
2019-02-25T14:33:58.681Z,6.63
2019-02-25T14:36:28.571Z,5.93
2019-02-25T14:38:59.439Z,6.10
2019-02-25T14:41:28.974Z,5.73
2019-02-25T14:43:58.871Z,4.53
2019-02-25T14:46:28.343Z,5.07
2019-02-25T14:48:57.704Z,4.87
2019-02-25T14:51:27.046Z,5.27
2019-02-25T14:53:56.860Z,8.27
2019-02-25T14:56:26.476Z,5.17
2019-02-25T14:58:55.856Z,5.10
2019-02-25T15:01:27.418Z,6.40
2019-02-25T15:03:58.051Z,6.40
2019-02-25T15:06:28.135Z,7.70
2019-02-25T15:08:59.588Z,5.17
2019-02-25T15:11:29.476Z,5.90
2019-02-25T15:13:59.467Z,7.90
2019-02-25T15:16:29.033Z,8.13
2019-02-25T15:18:58.644Z,8.20
2019-02-25T15:21:31.439Z,7.47
2019-02-25T15:24:02.623Z,13.63
2019-02-25T15:26:32.107Z,7.20
2019-02-25T15:29:02.910Z,7.23
2019-02-25T15:31:46.316Z,6.97
2019-02-25T15:34:17.199Z,9.10
2019-02-25T15:36:47.053Z,8.03
2019-02-25T15:39:16.935Z,10.97
2019-02-25T15:42:05.387Z,8.57
2019-02-25T15:44:35.084Z,9.20
2019-02-25T15:47:08.485Z,9.00
2019-02-25T15:49:37.963Z,7.73
2019-02-25T15:52:07.333Z,10.37
2019-02-25T15:54:37.184Z,8.87
2019-02-25T15:57:07.783Z,8.67
2019-02-25T15:59:37.195Z,9.03
2019-02-25T16:02:07.728Z,12.13
2019-02-25T16:04:38.285Z,11.90
2019-02-25T16:07:11.869Z,10.70
2019-02-25T16:09:41.419Z,11.47
2019-02-25T16:12:10.843Z,9.77
2019-02-25T16:14:41.877Z,9.77
2019-02-25T16:17:13.728Z,10.90
2019-02-25T16:19:47.483Z,12.47
2019-02-25T16:22:14.288Z,10.97
2019-02-25T16:24:43.774Z,12.00
2019-02-25T16:27:13.664Z,10.60
2019-02-25T16:29:44.756Z,10.13
2019-02-25T16:32:15.337Z,9.30
2019-02-25T16:34:45.196Z,9.17
2019-02-25T16:37:14.599Z,8.53
2019-02-25T16:39:43.967Z,7.43
2019-02-25T16:42:13.275Z,9.43
2019-02-25T16:44:42.711Z,9.33
2019-02-25T16:47:13.816Z,10.80
2019-02-25T16:49:43.243Z,13.80
2019-02-25T16:52:13.858Z,11.67
2019-02-25T16:54:43.559Z,10.87
2019-02-25T16:57:14.255Z,9.40
2019-02-25T16:59:43.914Z,9.07
2019-02-25T17:02:14.138Z,9.33
2019-02-25T17:04:43.582Z,14.20
2019-02-25T17:07:14.354Z,11.73
2019-02-25T17:09:44.267Z,11.83
2019-02-25T17:12:13.951Z,9.17
2019-02-25T17:14:43.750Z,9.70
2019-02-25T17:17:13.124Z,9.37
2019-02-25T17:19:42.528Z,10.00
2019-02-25T17:22:11.860Z,10.27
2019-02-25T17:24:43.448Z,9.87
2019-02-25T17:27:14.197Z,10.80
2019-02-25T17:29:43.747Z,9.77
2019-02-25T17:32:14.602Z,9.20
2019-02-25T17:34:44.141Z,11.33
2019-02-25T17:37:14.831Z,9.23
2019-02-25T17:39:44.704Z,10.50
2019-02-25T17:42:14.578Z,11.77
2019-02-25T17:44:44.438Z,11.20
2019-02-25T17:47:23.643Z,13.43
2019-02-25T17:49:44.840Z,10.47
2019-02-25T17:52:16.146Z,11.07
2019-02-25T17:54:45.493Z,10.50
2019-02-25T17:57:15.263Z,11.30
2019-02-25T17:59:46.214Z,9.93
2019-02-25T18:02:15.680Z,11.70
2019-02-25T18:04:46.924Z,10.03
2019-02-25T18:07:16.174Z,12.13
2019-02-25T18:09:46.504Z,13.63
2019-02-25T18:12:15.894Z,12.57
2019-02-25T18:14:45.804Z,12.10
2019-02-25T18:17:17.513Z,12.13
2019-02-25T18:19:50.148Z,16.03
2019-02-25T18:22:20.580Z,13.83
2019-02-25T18:24:50.381Z,15.10
2019-02-25T18:27:22.355Z,12.40
2019-02-25T18:29:52.555Z,13.70
2019-02-25T18:32:22.853Z,11.43
2019-02-25T18:34:52.625Z,11.93
2019-02-25T18:37:24.299Z,11.43
2019-02-25T18:39:56.684Z,12.77
2019-02-25T18:42:26.465Z,12.20
2019-02-25T18:44:56.142Z,12.33
2019-02-25T18:47:27.206Z,12.20
2019-02-25T18:49:58.724Z,13.13
2019-02-25T18:52:29.652Z,11.27
2019-02-25T18:55:02.825Z,12.30
2019-02-25T18:57:31.529Z,15.60
2019-02-25T19:00:03.867Z,13.00
2019-02-25T19:02:33.416Z,12.87
2019-02-25T19:05:04.500Z,12.63
2019-02-25T19:07:34.913Z,13.53
2019-02-25T19:10:05.214Z,13.63
2019-02-25T19:12:35.406Z,14.20
2019-02-25T19:15:07.150Z,12.60
2019-02-25T19:17:43.330Z,14.97
2019-02-25T19:20:13.233Z,10.93
2019-02-25T19:22:45.027Z,13.77
2019-02-25T19:25:18.240Z,16.93
2019-02-25T19:27:50.616Z,12.00
2019-02-25T19:30:22.300Z,11.97
2019-02-25T19:32:52.188Z,13.27
2019-02-25T19:35:21.923Z,16.77
2019-02-25T19:37:52.631Z,14.23
2019-02-25T19:40:24.341Z,13.77
2019-02-25T19:42:54.253Z,14.47
2019-02-25T19:45:24.436Z,16.07
2019-02-25T19:47:55.982Z,14.53
2019-02-25T19:50:27.221Z,12.93
2019-02-25T19:53:00.420Z,14.40
2019-02-25T19:55:27.629Z,15.80
2019-02-25T19:57:57.055Z,14.47
2019-02-25T20:00:28.246Z,14.40
2019-02-25T20:03:05.201Z,16.17
2019-02-25T20:05:29.941Z,12.73
2019-02-25T20:07:59.427Z,15.43
2019-02-25T20:10:30.664Z,15.33
2019-02-25T20:13:05.723Z,15.73
2019-02-25T20:15:37.629Z,17.30
2019-02-25T20:18:07.218Z,16.80
2019-02-25T20:20:38.920Z,19.80
2019-02-25T20:23:08.919Z,18.17
2019-02-25T20:25:48.861Z,16.93
2019-02-25T20:28:18.728Z,20.60
2019-02-25T20:30:51.510Z,17.17
2019-02-25T20:33:23.618Z,16.17
2019-02-25T20:35:53.526Z,16.60
2019-02-25T20:38:27.153Z,19.30
2019-02-25T20:40:57.868Z,17.40
2019-02-25T20:43:28.691Z,19.83
2019-02-25T20:46:01.091Z,18.53
2019-02-25T20:48:30.345Z,19.53
2019-02-25T20:51:01.786Z,18.00
2019-02-25T20:53:32.214Z,19.17
2019-02-25T20:56:01.998Z,19.00
2019-02-25T20:58:31.416Z,17.87
2019-02-25T21:01:00.853Z,16.90
2019-02-25T21:03:50.437Z,17.53
2019-02-25T21:06:21.263Z,17.17
2019-02-25T21:08:50.820Z,18.00
2019-02-25T21:11:20.322Z,17.97
2019-02-25T21:13:49.748Z,15.97
2019-02-25T21:16:19.148Z,15.60
2019-02-25T21:18:49.177Z,18.73
2019-02-25T21:21:19.740Z,20.27
2019-02-25T21:23:50.644Z,17.03
2019-02-25T21:26:20.087Z,15.27
2019-02-25T21:28:49.574Z,15.20
2019-02-25T21:31:20.893Z,15.43
2019-02-25T21:33:52.298Z,14.13
2019-02-25T21:36:21.091Z,16.87
2019-02-25T21:38:51.699Z,16.50
2019-02-25T21:41:21.545Z,18.60
2019-02-25T21:43:51.789Z,14.27
2019-02-25T21:46:24.165Z,13.37
2019-02-25T21:48:54.877Z,13.83
2019-02-25T21:51:30.331Z,14.70
2019-02-25T21:53:58.117Z,13.90
2019-02-25T21:56:27.980Z,14.90
2019-02-25T21:58:57.396Z,14.93
2019-02-25T22:01:26.748Z,13.70
2019-02-25T22:03:56.030Z,13.53
2019-02-25T22:06:26.842Z,16.43
2019-02-25T22:08:58.478Z,15.93
2019-02-25T22:11:27.670Z,14.97
2019-02-25T22:13:56.992Z,15.93
2019-02-25T22:16:27.858Z,19.87
2019-02-25T22:18:58.777Z,14.40
2019-02-25T22:21:28.200Z,16.80
2019-02-25T22:24:02.650Z,16.03
2019-02-25T22:26:30.803Z,15.23
2019-02-25T22:29:01.723Z,15.57
2019-02-25T22:31:32.372Z,16.17
2019-02-25T22:34:01.689Z,14.80
2019-02-25T22:36:31.066Z,15.17
2019-02-25T22:39:01.889Z,17.40
2019-02-25T22:41:31.477Z,14.63
2019-02-25T22:44:02.029Z,15.03
2019-02-25T22:46:32.546Z,16.47
2019-02-25T22:49:04.917Z,15.13
2019-02-25T22:51:35.345Z,18.80
2019-02-25T22:54:06.283Z,16.10
2019-02-25T22:56:35.976Z,15.63
2019-02-25T22:59:05.345Z,19.33
2019-02-25T23:01:36.867Z,16.07
2019-02-25T23:04:05.772Z,17.63
2019-02-25T23:06:39.617Z,15.63
2019-02-25T23:09:12.264Z,17.77
2019-02-25T23:11:41.768Z,17.83
2019-02-25T23:14:11.479Z,20.90
2019-02-25T23:16:43.224Z,22.37
2019-02-25T23:19:13.736Z,20.27
2019-02-25T23:21:43.655Z,22.27
2019-02-25T23:24:13.017Z,17.97
2019-02-25T23:26:42.312Z,16.37
2019-02-25T23:29:11.730Z,21.07
2019-02-25T23:31:41.142Z,16.80
2019-02-25T23:34:12.665Z,15.87
2019-02-25T23:36:44.833Z,17.43
2019-02-25T23:39:12.979Z,18.07
2019-02-25T23:41:43.919Z,16.77
2019-02-25T23:44:15.062Z,18.80
2019-02-25T23:46:44.464Z,16.20
2019-02-25T23:49:13.813Z,17.90
2019-02-25T23:51:43.811Z,19.47
2019-02-25T23:54:16.003Z,17.73
2019-02-25T23:56:47.645Z,20.63
2019-02-25T23:59:17.019Z,17.57
